sensor_id;sensor_type;location;lat;lon;timestamp;temperature;humidity
26041;DHT22;13816;53.628;9.950;2022-07-18T07:50:22;22.20;99.70
26041;DHT22;13816;53.628;9.950;2022-07-18T09:58:41;22.50;99.90
26041;DHT22;13816;53.628;9.950;2022-07-18T10:01:09;27.20;94.80
26041;DHT22;13816;53.628;9.950;2022-07-18T10:03:36;26.80;95.30
26041;DHT22;13816;53.628;9.950;2022-07-18T10:06:02;26.80;95.00
26041;DHT22;13816;53.628;9.950;2022-07-18T10:08:30;26.70;95.10
26041;DHT22;13816;53.628;9.950;2022-07-18T10:10:58;26.80;95.40
26041;DHT22;13816;53.628;9.950;2022-07-18T10:13:27;27.00;94.20
26041;DHT22;13816;53.628;9.950;2022-07-18T10:30:45;27.10;93.90
26041;DHT22;13816;53.628;9.950;2022-07-18T10:33:38;27.50;93.10
26041;DHT22;13816;53.628;9.950;2022-07-18T10:36:10;27.70;92.90
26041;DHT22;13816;53.628;9.950;2022-07-18T10:41:11;27.90;93.20
26041;DHT22;13816;53.628;9.950;2022-07-18T10:43:39;28.30;92.30
26041;DHT22;13816;53.628;9.950;2022-07-18T10:46:07;28.40;92.60
26041;DHT22;13816;53.628;9.950;2022-07-18T10:51:14;28.30;91.90
26041;DHT22;13816;53.628;9.950;2022-07-18T10:59:15;28.00;91.70
26041;DHT22;13816;53.628;9.950;2022-07-18T11:01:48;27.90;91.50
26041;DHT22;13816;53.628;9.950;2022-07-18T11:04:26;27.80;91.60
26041;DHT22;13816;53.628;9.950;2022-07-18T11:06:54;27.70;91.70
26041;DHT22;13816;53.628;9.950;2022-07-18T11:09:37;27.60;91.40
26041;DHT22;13816;53.628;9.950;2022-07-18T11:12:21;27.20;91.80
26041;DHT22;13816;53.628;9.950;2022-07-18T11:18:03;27.00;92.50
26041;DHT22;13816;53.628;9.950;2022-07-18T11:20:38;27.00;92.00
26041;DHT22;13816;53.628;9.950;2022-07-18T11:23:14;27.10;92.40
26041;DHT22;13816;53.628;9.950;2022-07-18T11:25:40;27.00;92.20
26041;DHT22;13816;53.628;9.950;2022-07-18T11:28:10;27.00;92.40
26041;DHT22;13816;53.628;9.950;2022-07-18T11:30:37;27.10;92.70
26041;DHT22;13816;53.628;9.950;2022-07-18T11:33:04;27.20;91.90
26041;DHT22;13816;53.628;9.950;2022-07-18T11:35:30;27.30;92.30
26041;DHT22;13816;53.628;9.950;2022-07-18T11:37:56;27.40;92.10
26041;DHT22;13816;53.628;9.950;2022-07-18T11:40:22;27.40;91.90
26041;DHT22;13816;53.628;9.950;2022-07-18T11:42:48;27.50;92.00
26041;DHT22;13816;53.628;9.950;2022-07-18T11:45:15;27.40;91.70
26041;DHT22;13816;53.628;9.950;2022-07-18T11:47:49;27.50;91.80
26041;DHT22;13816;53.628;9.950;2022-07-18T11:50:17;27.50;91.80
26041;DHT22;13816;53.628;9.950;2022-07-18T11:52:44;27.60;91.50
26041;DHT22;13816;53.628;9.950;2022-07-18T11:55:13;27.70;91.30
26041;DHT22;13816;53.628;9.950;2022-07-18T11:57:39;27.80;90.90
26041;DHT22;13816;53.628;9.950;2022-07-18T12:00:17;27.60;90.80
26041;DHT22;13816;53.628;9.950;2022-07-18T12:02:43;27.40;90.60
26041;DHT22;13816;53.628;9.950;2022-07-18T12:05:36;27.40;91.40
26041;DHT22;13816;53.628;9.950;2022-07-18T12:08:41;27.40;91.20
26041;DHT22;13816;53.628;9.950;2022-07-18T12:11:37;27.40;90.90
26041;DHT22;13816;53.628;9.950;2022-07-18T12:16:36;27.50;91.20
26041;DHT22;13816;53.628;9.950;2022-07-18T12:19:08;27.60;91.10
26041;DHT22;13816;53.628;9.950;2022-07-18T12:21:42;27.80;91.00
26041;DHT22;13816;53.628;9.950;2022-07-18T12:27:17;28.10;91.30
26041;DHT22;13816;53.628;9.950;2022-07-18T12:30:10;28.30;90.30
26041;DHT22;13816;53.628;9.950;2022-07-18T12:32:56;28.50;90.10
26041;DHT22;13816;53.628;9.950;2022-07-18T12:35:28;28.80;90.30
26041;DHT22;13816;53.628;9.950;2022-07-18T12:43:28;28.90;89.50
26041;DHT22;13816;53.628;9.950;2022-07-18T12:45:55;28.90;89.40
26041;DHT22;13816;53.628;9.950;2022-07-18T12:48:22;28.90;89.60
26041;DHT22;13816;53.628;9.950;2022-07-18T12:53:24;28.90;90.10
26041;DHT22;13816;53.628;9.950;2022-07-18T12:55:50;29.00;89.40
26041;DHT22;13816;53.628;9.950;2022-07-18T12:58:16;29.10;89.70
26041;DHT22;13816;53.628;9.950;2022-07-18T13:00:41;29.30;88.90
26041;DHT22;13816;53.628;9.950;2022-07-18T13:03:09;29.20;88.60
26041;DHT22;13816;53.628;9.950;2022-07-18T13:05:35;29.00;88.70
26041;DHT22;13816;53.628;9.950;2022-07-18T13:08:01;28.80;87.80
26041;DHT22;13816;53.628;9.950;2022-07-18T13:10:27;28.40;88.20
26041;DHT22;13816;53.628;9.950;2022-07-18T13:12:53;28.20;88.60
26041;DHT22;13816;53.628;9.950;2022-07-18T13:15:19;28.10;89.10
26041;DHT22;13816;53.628;9.950;2022-07-18T13:17:46;28.00;90.00
26041;DHT22;13816;53.628;9.950;2022-07-18T13:20:17;28.00;89.70
26041;DHT22;13816;53.628;9.950;2022-07-18T13:22:43;28.00;89.80
26041;DHT22;13816;53.628;9.950;2022-07-18T13:25:09;27.90;90.10
26041;DHT22;13816;53.628;9.950;2022-07-18T13:27:36;28.00;89.80
26041;DHT22;13816;53.628;9.950;2022-07-18T13:30:04;28.00;90.00
26041;DHT22;13816;53.628;9.950;2022-07-18T13:32:30;27.90;89.90
26041;DHT22;13816;53.628;9.950;2022-07-18T13:34:56;28.00;89.60
26041;DHT22;13816;53.628;9.950;2022-07-18T13:37:22;28.00;90.00
26041;DHT22;13816;53.628;9.950;2022-07-18T13:39:48;28.00;90.30
26041;DHT22;13816;53.628;9.950;2022-07-18T13:42:14;28.10;90.20
26041;DHT22;13816;53.628;9.950;2022-07-18T13:44:40;28.20;90.60
26041;DHT22;13816;53.628;9.950;2022-07-18T13:47:06;28.30;90.40
26041;DHT22;13816;53.628;9.950;2022-07-18T13:49:31;28.20;88.90
26041;DHT22;13816;53.628;9.950;2022-07-18T13:51:57;28.20;89.60
26041;DHT22;13816;53.628;9.950;2022-07-18T13:54:23;28.30;88.20
26041;DHT22;13816;53.628;9.950;2022-07-18T13:56:49;28.40;88.40
26041;DHT22;13816;53.628;9.950;2022-07-18T13:59:14;28.50;86.80
26041;DHT22;13816;53.628;9.950;2022-07-18T14:01:41;28.60;85.00
26041;DHT22;13816;53.628;9.950;2022-07-18T14:04:07;28.70;85.50
26041;DHT22;13816;53.628;9.950;2022-07-18T14:06:33;28.80;85.90
26041;DHT22;13816;53.628;9.950;2022-07-18T14:09:04;28.90;84.90
26041;DHT22;13816;53.628;9.950;2022-07-18T14:11:31;29.10;85.00
26041;DHT22;13816;53.628;9.950;2022-07-18T14:14:02;29.30;85.40
26041;DHT22;13816;53.628;9.950;2022-07-18T14:16:28;29.60;85.50
26041;DHT22;13816;53.628;9.950;2022-07-18T14:18:54;29.30;85.10
26041;DHT22;13816;53.628;9.950;2022-07-18T14:21:20;29.20;85.50
26041;DHT22;13816;53.628;9.950;2022-07-18T14:23:46;29.00;85.60
26041;DHT22;13816;53.628;9.950;2022-07-18T14:26:11;28.90;85.00
26041;DHT22;13816;53.628;9.950;2022-07-18T14:28:37;28.90;85.40
26041;DHT22;13816;53.628;9.950;2022-07-18T14:31:03;28.90;85.90
26041;DHT22;13816;53.628;9.950;2022-07-18T14:33:29;29.00;85.50
26041;DHT22;13816;53.628;9.950;2022-07-18T14:35:55;29.10;86.20
26041;DHT22;13816;53.628;9.950;2022-07-18T14:38:21;29.30;85.30
26041;DHT22;13816;53.628;9.950;2022-07-18T14:40:46;29.40;84.80
26041;DHT22;13816;53.628;9.950;2022-07-18T14:43:12;29.60;83.90
26041;DHT22;13816;53.628;9.950;2022-07-18T14:45:38;29.70;84.90
26041;DHT22;13816;53.628;9.950;2022-07-18T19:26:14;29.80;85.10
26041;DHT22;13816;53.628;9.950;2022-07-18T19:38:26;24.40;95.00
26041;DHT22;13816;53.628;9.950;2022-07-18T20:27:14;23.80;96.60
26041;DHT22;13816;53.628;9.950;2022-07-18T20:41:54;22.00;99.90
26041;DHT22;13816;53.628;9.950;2022-07-18T20:44:22;21.40;99.90
26041;DHT22;13816;53.628;9.950;2022-07-18T20:46:51;21.30;99.90
26041;DHT22;13816;53.628;9.950;2022-07-18T20:49:17;21.20;99.90
26041;DHT22;13816;53.628;9.950;2022-07-18T20:51:43;21.10;99.90
26041;DHT22;13816;53.628;9.950;2022-07-18T20:54:08;20.90;99.90
26041;DHT22;13816;53.628;9.950;2022-07-18T20:56:43;21.00;99.90
26041;DHT22;13816;53.628;9.950;2022-07-18T20:59:09;20.90;99.90
26041;DHT22;13816;53.628;9.950;2022-07-18T21:01:34;20.90;99.90
26041;DHT22;13816;53.628;9.950;2022-07-18T21:04:00;20.90;99.90
26041;DHT22;13816;53.628;9.950;2022-07-18T21:06:26;20.80;99.90
26041;DHT22;13816;53.628;9.950;2022-07-18T21:08:52;20.90;99.90
26041;DHT22;13816;53.628;9.950;2022-07-18T21:11:18;20.70;99.90
26041;DHT22;13816;53.628;9.950;2022-07-18T21:13:43;20.60;99.90
26041;DHT22;13816;53.628;9.950;2022-07-18T21:16:09;20.50;99.90
26041;DHT22;13816;53.628;9.950;2022-07-18T21:18:35;20.40;99.90
26041;DHT22;13816;53.628;9.950;2022-07-18T21:21:00;20.30;99.90
26041;DHT22;13816;53.628;9.950;2022-07-18T21:23:26;20.30;99.90
26041;DHT22;13816;53.628;9.950;2022-07-18T21:25:53;20.20;99.90
26041;DHT22;13816;53.628;9.950;2022-07-18T21:28:18;20.10;99.90
26041;DHT22;13816;53.628;9.950;2022-07-18T21:30:44;20.10;99.90
26041;DHT22;13816;53.628;9.950;2022-07-18T21:33:10;20.00;99.90
26041;DHT22;13816;53.628;9.950;2022-07-18T21:35:37;20.10;99.90
26041;DHT22;13816;53.628;9.950;2022-07-18T21:38:06;20.00;99.90
26041;DHT22;13816;53.628;9.950;2022-07-18T22:04:58;19.90;99.90
26041;DHT22;13816;53.628;9.950;2022-07-18T22:09:50;19.40;99.90
26041;DHT22;13816;53.628;9.950;2022-07-18T22:41:32;19.40;99.90
